sensor_id;sensor_type;location;lat;lon;timestamp;pressure;altitude;pressure_sealevel;temperature;humidity
8320;BME280;4197;42.130;24.746;2022-10-10T00:02:04;100219.94;;;12.54;97.26
8320;BME280;4197;42.130;24.746;2022-10-10T00:04:32;100222.22;;;12.52;97.72
8320;BME280;4197;42.130;24.746;2022-10-10T00:07:00;100219.44;;;12.64;97.14
8320;BME280;4197;42.130;24.746;2022-10-10T00:09:29;100226.72;;;12.60;96.44
8320;BME280;4197;42.130;24.746;2022-10-10T00:11:57;100223.53;;;12.42;97.59
8320;BME280;4197;42.130;24.746;2022-10-10T00:14:25;100230.06;;;12.25;97.87
8320;BME280;4197;42.130;24.746;2022-10-10T00:16:58;100234.81;;;12.16;99.29
8320;BME280;4197;42.130;24.746;2022-10-10T00:19:26;100230.84;;;12.25;98.54
8320;BME280;4197;42.130;24.746;2022-10-10T00:21:54;100232.88;;;12.28;97.87
8320;BME280;4197;42.130;24.746;2022-10-10T00:24:22;100234.59;;;12.21;98.51
8320;BME280;4197;42.130;24.746;2022-10-10T00:26:51;100242.84;;;12.24;98.44
8320;BME280;4197;42.130;24.746;2022-10-10T00:29:19;100248.28;;;12.24;98.36
8320;BME280;4197;42.130;24.746;2022-10-10T00:31:47;100257.81;;;12.18;98.41
8320;BME280;4197;42.130;24.746;2022-10-10T00:34:15;100253.16;;;12.19;98.28
8320;BME280;4197;42.130;24.746;2022-10-10T00:36:43;100252.75;;;12.17;98.51
8320;BME280;4197;42.130;24.746;2022-10-10T00:39:11;100246.19;;;12.05;98.93
8320;BME280;4197;42.130;24.746;2022-10-10T00:41:39;100244.84;;;11.99;99.28
8320;BME280;4197;42.130;24.746;2022-10-10T00:44:10;100253.91;;;11.91;99.73
8320;BME280;4197;42.130;24.746;2022-10-10T00:46:39;100247.91;;;11.86;100.00
8320;BME280;4197;42.130;24.746;2022-10-10T00:49:10;100247.78;;;11.82;100.00
8320;BME280;4197;42.130;24.746;2022-10-10T00:51:40;100262.53;;;11.81;100.00
8320;BME280;4197;42.130;24.746;2022-10-10T00:54:10;100259.34;;;11.79;100.00
8320;BME280;4197;42.130;24.746;2022-10-10T00:56:45;100251.09;;;11.75;100.00
8320;BME280;4197;42.130;24.746;2022-10-10T00:59:17;100245.22;;;11.73;100.00
8320;BME280;4197;42.130;24.746;2022-10-10T01:01:46;100239.22;;;11.68;100.00
8320;BME280;4197;42.130;24.746;2022-10-10T01:04:31;100244.41;;;11.60;100.00
8320;BME280;4197;42.130;24.746;2022-10-10T01:07:01;100246.25;;;11.56;100.00
8320;BME280;4197;42.130;24.746;2022-10-10T01:09:30;100252.34;;;11.53;100.00
8320;BME280;4197;42.130;24.746;2022-10-10T01:12:07;100249.50;;;11.50;100.00
8320;BME280;4197;42.130;24.746;2022-10-10T01:14:45;100246.56;;;11.55;100.00
8320;BME280;4197;42.130;24.746;2022-10-10T01:17:19;100248.16;;;11.56;100.00
8320;BME280;4197;42.130;24.746;2022-10-10T01:20:25;100250.31;;;11.50;100.00
8320;BME280;4197;42.130;24.746;2022-10-10T01:23:10;100257.22;;;11.48;100.00
8320;BME280;4197;42.130;24.746;2022-10-10T01:25:57;100260.03;;;11.51;100.00
8320;BME280;4197;42.130;24.746;2022-10-10T01:28:36;100270.44;;;11.49;100.00
8320;BME280;4197;42.130;24.746;2022-10-10T01:31:08;100259.94;;;11.48;100.00
8320;BME280;4197;42.130;24.746;2022-10-10T01:33:43;100264.91;;;11.46;100.00
8320;BME280;4197;42.130;24.746;2022-10-10T01:36:20;100265.13;;;11.41;100.00
8320;BME280;4197;42.130;24.746;2022-10-10T01:38:51;100265.94;;;11.41;100.00
8320;BME280;4197;42.130;24.746;2022-10-10T01:41:25;100263.88;;;11.38;100.00
8320;BME280;4197;42.130;24.746;2022-10-10T01:43:57;100268.84;;;11.36;100.00
8320;BME280;4197;42.130;24.746;2022-10-10T01:46:25;100268.84;;;11.36;100.00
8320;BME280;4197;42.130;24.746;2022-10-10T01:48:55;100278.16;;;11.35;100.00
8320;BME280;4197;42.130;24.746;2022-10-10T01:51:41;100281.88;;;11.30;100.00
8320;BME280;4197;42.130;24.746;2022-10-10T01:54:29;100283.47;;;11.31;100.00
8320;BME280;4197;42.130;24.746;2022-10-10T01:57:14;100277.56;;;11.29;100.00
8320;BME280;4197;42.130;24.746;2022-10-10T01:59:56;100291.84;;;11.26;100.00
8320;BME280;4197;42.130;24.746;2022-10-10T02:02:35;100292.16;;;11.25;100.00
8320;BME280;4197;42.130;24.746;2022-10-10T02:05:14;100289.00;;;11.23;100.00
8320;BME280;4197;42.130;24.746;2022-10-10T02:07:48;100295.22;;;11.23;100.00
8320;BME280;4197;42.130;24.746;2022-10-10T02:10:21;100294.44;;;11.23;100.00
8320;BME280;4197;42.130;24.746;2022-10-10T02:12:50;100290.34;;;11.16;100.00
8320;BME280;4197;42.130;24.746;2022-10-10T02:15:23;100297.56;;;11.12;100.00
8320;BME280;4197;42.130;24.746;2022-10-10T02:17:52;100304.47;;;11.10;100.00
8320;BME280;4197;42.130;24.746;2022-10-10T02:20:24;100300.50;;;11.07;100.00
8320;BME280;4197;42.130;24.746;2022-10-10T02:22:53;100290.78;;;11.06;100.00
8320;BME280;4197;42.130;24.746;2022-10-10T02:25:26;100293.25;;;10.99;100.00
8320;BME280;4197;42.130;24.746;2022-10-10T02:28:01;100296.63;;;10.96;100.00
8320;BME280;4197;42.130;24.746;2022-10-10T02:30:37;100296.97;;;10.94;100.00
8320;BME280;4197;42.130;24.746;2022-10-10T02:33:08;100295.38;;;10.93;100.00
8320;BME280;4197;42.130;24.746;2022-10-10T02:35:41;100299.56;;;10.91;100.00
8320;BME280;4197;42.130;24.746;2022-10-10T02:38:11;100294.34;;;10.86;100.00
8320;BME280;4197;42.130;24.746;2022-10-10T02:40:44;100295.59;;;10.88;100.00
8320;BME280;4197;42.130;24.746;2022-10-10T02:43:13;100296.25;;;10.85;100.00
8320;BME280;4197;42.130;24.746;2022-10-10T02:45:43;100300.44;;;10.83;100.00
8320;BME280;4197;42.130;24.746;2022-10-10T02:48:11;100302.84;;;10.97;100.00
8320;BME280;4197;42.130;24.746;2022-10-10T02:50:40;100307.13;;;10.85;100.00
8320;BME280;4197;42.130;24.746;2022-10-10T02:53:08;100304.28;;;10.82;100.00
8320;BME280;4197;42.130;24.746;2022-10-10T02:55:36;100311.50;;;10.78;100.00
8320;BME280;4197;42.130;24.746;2022-10-10T02:58:04;100319.88;;;10.73;100.00
8320;BME280;4197;42.130;24.746;2022-10-10T03:00:32;100311.94;;;10.67;100.00
8320;BME280;4197;42.130;24.746;2022-10-10T03:03:02;100311.94;;;10.67;100.00
8320;BME280;4197;42.130;24.746;2022-10-10T03:05:30;100316.56;;;10.67;100.00
8320;BME280;4197;42.130;24.746;2022-10-10T03:07:58;100320.38;;;10.66;100.00
8320;BME280;4197;42.130;24.746;2022-10-10T03:10:26;100324.34;;;10.68;100.00
8320;BME280;4197;42.130;24.746;2022-10-10T03:12:54;100330.56;;;10.69;100.00
8320;BME280;4197;42.130;24.746;2022-10-10T03:15:22;100322.63;;;10.64;100.00
8320;BME280;4197;42.130;24.746;2022-10-10T03:17:50;100326.00;;;10.61;100.00
8320;BME280;4197;42.130;24.746;2022-10-10T03:20:19;100322.63;;;10.64;100.00
8320;BME280;4197;42.130;24.746;2022-10-10T03:22:47;100327.06;;;10.68;100.00
8320;BME280;4197;42.130;24.746;2022-10-10T03:25:16;100328.19;;;10.67;100.00
8320;BME280;4197;42.130;24.746;2022-10-10T03:27:44;100329.50;;;10.61;100.00
8320;BME280;4197;42.130;24.746;2022-10-10T03:30:12;100329.84;;;10.60;100.00
8320;BME280;4197;42.130;24.746;2022-10-10T03:32:40;100330.16;;;10.58;100.00
8320;BME280;4197;42.130;24.746;2022-10-10T03:35:08;100323.97;;;10.58;100.00
8320;BME280;4197;42.130;24.746;2022-10-10T03:37:38;100325.88;;;10.57;100.00
8320;BME280;4197;42.130;24.746;2022-10-10T03:40:06;100328.59;;;10.57;100.00
8320;BME280;4197;42.130;24.746;2022-10-10T03:42:34;100332.69;;;10.63;100.00
8320;BME280;4197;42.130;24.746;2022-10-10T03:45:03;100331.34;;;10.69;100.00
8320;BME280;4197;42.130;24.746;2022-10-10T03:47:32;100329.38;;;10.79;100.00
8320;BME280;4197;42.130;24.746;2022-10-10T03:50:00;100332.09;;;10.79;100.00
8320;BME280;4197;42.130;24.746;2022-10-10T03:52:28;100326.91;;;10.86;100.00
8320;BME280;4197;42.130;24.746;2022-10-10T03:54:57;100324.84;;;10.83;100.00
8320;BME280;4197;42.130;24.746;2022-10-10T03:57:25;100330.16;;;10.79;100.00
8320;BME280;4197;42.130;24.746;2022-10-10T03:59:53;100335.91;;;10.78;100.00
8320;BME280;4197;42.130;24.746;2022-10-10T04:02:21;100330.94;;;10.80;100.00
8320;BME280;4197;42.130;24.746;2022-10-10T04:04:49;100331.63;;;10.77;100.00
8320;BME280;4197;42.130;24.746;2022-10-10T04:07:18;100327.19;;;10.72;100.00
8320;BME280;4197;42.130;24.746;2022-10-10T04:09:46;100335.88;;;10.65;100.00
8320;BME280;4197;42.130;24.746;2022-10-10T04:12:16;100336.84;;;10.61;100.00
8320;BME280;4197;42.130;24.746;2022-10-10T04:14:45;100342.63;;;10.59;100.00
8320;BME280;4197;42.130;24.746;2022-10-10T04:17:13;100340.22;;;10.58;100.00
8320;BME280;4197;42.130;24.746;2022-10-10T04:19:41;100341.50;;;10.60;100.00
8320;BME280;4197;42.130;24.746;2022-10-10T04:22:09;100337.19;;;10.59;100.00
8320;BME280;4197;42.130;24.746;2022-10-10T04:24:38;100341.03;;;10.58;100.00
8320;BME280;4197;42.130;24.746;2022-10-10T04:27:06;100342.94;;;10.58;100.00
8320;BME280;4197;42.130;24.746;2022-10-10T04:29:36;100344.09;;;10.57;100.00
8320;BME280;4197;42.130;24.746;2022-10-10T04:32:05;100344.09;;;10.57;100.00
8320;BME280;4197;42.130;24.746;2022-10-10T04:34:33;100341.38;;;10.57;100.00
8320;BME280;4197;42.130;24.746;2022-10-10T04:37:02;100349.97;;;10.59;100.00
8320;BME280;4197;42.130;24.746;2022-10-10T04:39:30;100354.94;;;10.57;100.00
8320;BME280;4197;42.130;24.746;2022-10-10T04:41:58;100354.25;;;10.60;100.00
8320;BME280;4197;42.130;24.746;2022-10-10T04:44:27;100355.31;;;10.67;100.00
8320;BME280;4197;42.130;24.746;2022-10-10T04:46:56;100355.75;;;10.69;100.00
8320;BME280;4197;42.130;24.746;2022-10-10T04:49:24;100358.34;;;10.66;100.00
8320;BME280;4197;42.130;24.746;2022-10-10T04:51:52;100362.44;;;10.72;100.00
8320;BME280;4197;42.130;24.746;2022-10-10T04:54:20;100361.66;;;10.71;100.00
8320;BME280;4197;42.130;24.746;2022-10-10T04:56:48;100363.50;;;10.80;100.00
8320;BME280;4197;42.130;24.746;2022-10-10T04:59:16;100366.81;;;10.85;100.00
8320;BME280;4197;42.130;24.746;2022-10-10T05:01:46;100377.66;;;10.85;100.00
8320;BME280;4197;42.130;24.746;2022-10-10T05:04:15;100376.09;;;10.84;100.00
8320;BME280;4197;42.130;24.746;2022-10-10T05:06:43;100376.09;;;10.84;100.00
8320;BME280;4197;42.130;24.746;2022-10-10T05:09:11;100382.75;;;10.87;100.00
8320;BME280;4197;42.130;24.746;2022-10-10T05:11:40;100382.41;;;11.09;100.00
8320;BME280;4197;42.130;24.746;2022-10-10T05:14:08;100385.69;;;11.15;100.00
8320;BME280;4197;42.130;24.746;2022-10-10T05:16:36;100391.72;;;11.21;100.00
8320;BME280;4197;42.130;24.746;2022-10-10T05:19:04;100393.53;;;11.29;100.00
8320;BME280;4197;42.130;24.746;2022-10-10T05:21:34;100390.03;;;11.28;100.00
8320;BME280;4197;42.130;24.746;2022-10-10T05:24:02;100395.59;;;11.32;100.00
8320;BME280;4197;42.130;24.746;2022-10-10T05:26:30;100392.88;;;11.44;100.00
8320;BME280;4197;42.130;24.746;2022-10-10T05:28:58;100401.19;;;11.48;100.00
8320;BME280;4197;42.130;24.746;2022-10-10T05:31:27;100401.75;;;11.53;100.00
8320;BME280;4197;42.130;24.746;2022-10-10T05:33:55;100405.72;;;11.56;100.00
8320;BME280;4197;42.130;24.746;2022-10-10T05:36:23;100411.94;;;11.56;100.00
8320;BME280;4197;42.130;24.746;2022-10-10T05:38:53;100408.19;;;11.61;100.00
8320;BME280;4197;42.130;24.746;2022-10-10T05:41:20;100417.03;;;11.58;100.00
8320;BME280;4197;42.130;24.746;2022-10-10T05:43:49;100415.91;;;11.59;100.00
8320;BME280;4197;42.130;24.746;2022-10-10T05:46:17;100416.50;;;11.65;100.00
8320;BME280;4197;42.130;24.746;2022-10-10T05:48:46;100426.22;;;11.66;100.00
8320;BME280;4197;42.130;24.746;2022-10-10T05:51:14;100419.31;;;11.68;100.00
8320;BME280;4197;42.130;24.746;2022-10-10T05:53:42;100423.75;;;11.85;100.00
8320;BME280;4197;42.130;24.746;2022-10-10T05:56:12;100426.94;;;11.99;100.00
8320;BME280;4197;42.130;24.746;2022-10-10T05:58:42;100429.91;;;12.07;100.00
8320;BME280;4197;42.130;24.746;2022-10-10T06:01:10;100445.44;;;12.18;100.00
8320;BME280;4197;42.130;24.746;2022-10-10T06:03:38;100441.22;;;12.21;100.00
8320;BME280;4197;42.130;24.746;2022-10-10T06:06:06;100442.94;;;12.25;100.00
8320;BME280;4197;42.130;24.746;2022-10-10T06:08:34;100440.88;;;12.35;100.00
8320;BME280;4197;42.130;24.746;2022-10-10T06:11:04;100444.72;;;12.46;100.00
8320;BME280;4197;42.130;24.746;2022-10-10T06:13:36;100444.03;;;12.49;100.00
8320;BME280;4197;42.130;24.746;2022-10-10T06:16:04;100440.63;;;12.52;100.00
8320;BME280;4197;42.130;24.746;2022-10-10T06:18:32;100441.19;;;12.58;100.00
8320;BME280;4197;42.130;24.746;2022-10-10T06:21:01;100439.84;;;12.64;100.00
8320;BME280;4197;42.130;24.746;2022-10-10T06:23:29;100446.16;;;12.68;100.00
8320;BME280;4197;42.130;24.746;2022-10-10T06:25:57;100447.41;;;12.70;100.00
8320;BME280;4197;42.130;24.746;2022-10-10T06:28:26;100442.28;;;12.81;100.00
8320;BME280;4197;42.130;24.746;2022-10-10T06:30:58;100449.53;;;12.89;100.00
8320;BME280;4197;42.130;24.746;2022-10-10T06:33:26;100446.66;;;12.98;100.00
8320;BME280;4197;42.130;24.746;2022-10-10T06:35:54;100444.09;;;13.17;100.00
8320;BME280;4197;42.130;24.746;2022-10-10T06:38:22;100441.91;;;13.23;100.00
8320;BME280;4197;42.130;24.746;2022-10-10T06:40:51;100444.75;;;13.27;100.00
8320;BME280;4197;42.130;24.746;2022-10-10T06:43:23;100444.19;;;13.33;100.00
8320;BME280;4197;42.130;24.746;2022-10-10T06:45:51;100441.31;;;13.58;95.88
8320;BME280;4197;42.130;24.746;2022-10-10T06:48:20;100445.88;;;13.54;95.82
8320;BME280;4197;42.130;24.746;2022-10-10T06:50:56;100449.22;;;13.63;95.14
8320;BME280;4197;42.130;24.746;2022-10-10T06:53:24;100443.19;;;13.70;95.47
8320;BME280;4197;42.130;24.746;2022-10-10T06:55:54;100455.06;;;13.77;95.63
8320;BME280;4197;42.130;24.746;2022-10-10T06:58:22;100446.00;;;13.89;94.86
8320;BME280;4197;42.130;24.746;2022-10-10T07:00:52;100443.97;;;14.02;93.64
8320;BME280;4197;42.130;24.746;2022-10-10T07:03:23;100448.63;;;14.17;91.66
8320;BME280;4197;42.130;24.746;2022-10-10T07:05:52;100450.00;;;14.27;91.00
8320;BME280;4197;42.130;24.746;2022-10-10T07:08:21;100448.50;;;14.29;90.24
8320;BME280;4197;42.130;24.746;2022-10-10T07:10:50;100450.06;;;14.46;89.76
8320;BME280;4197;42.130;24.746;2022-10-10T07:13:18;100456.25;;;14.59;89.56
8320;BME280;4197;42.130;24.746;2022-10-10T07:15:47;100455.13;;;14.80;87.82
8320;BME280;4197;42.130;24.746;2022-10-10T07:18:17;100454.63;;;14.93;84.84
8320;BME280;4197;42.130;24.746;2022-10-10T07:20:47;100458.56;;;14.96;85.05
8320;BME280;4197;42.130;24.746;2022-10-10T07:23:15;100451.25;;;15.20;83.80
8320;BME280;4197;42.130;24.746;2022-10-10T07:25:43;100457.66;;;15.27;82.41
8320;BME280;4197;42.130;24.746;2022-10-10T07:28:12;100452.69;;;15.33;82.57
8320;BME280;4197;42.130;24.746;2022-10-10T07:30:40;100458.88;;;15.30;82.75
8320;BME280;4197;42.130;24.746;2022-10-10T07:33:09;100458.72;;;15.42;82.13
8320;BME280;4197;42.130;24.746;2022-10-10T07:35:38;100455.88;;;15.58;82.63
8320;BME280;4197;42.130;24.746;2022-10-10T07:38:09;100457.38;;;15.75;81.29
8320;BME280;4197;42.130;24.746;2022-10-10T07:40:38;100461.19;;;15.93;78.23
8320;BME280;4197;42.130;24.746;2022-10-10T07:43:07;100462.66;;;15.87;78.17
8320;BME280;4197;42.130;24.746;2022-10-10T07:45:35;100463.63;;;15.98;77.76
8320;BME280;4197;42.130;24.746;2022-10-10T07:48:03;100456.78;;;16.08;78.08
8320;BME280;4197;42.130;24.746;2022-10-10T07:50:32;100457.44;;;16.24;77.24
8320;BME280;4197;42.130;24.746;2022-10-10T07:53:00;100458.41;;;16.39;75.85
8320;BME280;4197;42.130;24.746;2022-10-10T07:55:29;100458.50;;;16.20;76.37
8320;BME280;4197;42.130;24.746;2022-10-10T07:57:58;100463.16;;;16.16;77.09
8320;BME280;4197;42.130;24.746;2022-10-10T08:00:28;100464.50;;;16.29;77.77
8320;BME280;4197;42.130;24.746;2022-10-10T08:02:56;100460.56;;;16.53;77.75
8320;BME280;4197;42.130;24.746;2022-10-10T08:05:24;100460.31;;;16.62;75.47
8320;BME280;4197;42.130;24.746;2022-10-10T08:07:53;100460.41;;;16.69;75.13
8320;BME280;4197;42.130;24.746;2022-10-10T08:10:21;100464.88;;;16.54;75.73
8320;BME280;4197;42.130;24.746;2022-10-10T08:12:51;100463.47;;;16.64;76.10
8320;BME280;4197;42.130;24.746;2022-10-10T08:15:19;100464.94;;;16.84;74.73
8320;BME280;4197;42.130;24.746;2022-10-10T08:17:47;100460.03;;;16.97;74.81
8320;BME280;4197;42.130;24.746;2022-10-10T08:20:16;100462.50;;;17.09;73.13
8320;BME280;4197;42.130;24.746;2022-10-10T08:22:44;100461.81;;;17.16;73.10
8320;BME280;4197;42.130;24.746;2022-10-10T08:25:12;100455.88;;;17.10;73.45
8320;BME280;4197;42.130;24.746;2022-10-10T08:27:40;100457.09;;;17.13;74.21
8320;BME280;4197;42.130;24.746;2022-10-10T08:30:11;100453.44;;;17.35;72.86
8320;BME280;4197;42.130;24.746;2022-10-10T08:32:39;100460.28;;;17.56;71.81
8320;BME280;4197;42.130;24.746;2022-10-10T08:35:07;100463.13;;;17.63;71.14
8320;BME280;4197;42.130;24.746;2022-10-10T08:37:35;100450.97;;;17.64;71.72
8320;BME280;4197;42.130;24.746;2022-10-10T08:40:05;100450.41;;;17.85;70.68
8320;BME280;4197;42.130;24.746;2022-10-10T08:42:37;100448.81;;;17.80;71.11
8320;BME280;4197;42.130;24.746;2022-10-10T08:45:18;100446.41;;;17.79;71.51
8320;BME280;4197;42.130;24.746;2022-10-10T08:47:48;100454.00;;;17.93;70.62
8320;BME280;4197;42.130;24.746;2022-10-10T08:50:22;100450.50;;;17.96;70.87
8320;BME280;4197;42.130;24.746;2022-10-10T08:52:55;100442.03;;;18.15;68.70
8320;BME280;4197;42.130;24.746;2022-10-10T08:55:27;100437.09;;;18.42;69.08
8320;BME280;4197;42.130;24.746;2022-10-10T08:58:03;100441.88;;;18.49;67.45
8320;BME280;4197;42.130;24.746;2022-10-10T09:00:38;100436.75;;;18.47;67.13
8320;BME280;4197;42.130;24.746;2022-10-10T09:03:18;100434.47;;;18.64;66.15
8320;BME280;4197;42.130;24.746;2022-10-10T09:05:58;100439.69;;;18.80;64.86
8320;BME280;4197;42.130;24.746;2022-10-10T09:08:40;100439.59;;;18.65;64.85
8320;BME280;4197;42.130;24.746;2022-10-10T09:11:21;100430.59;;;18.72;64.27
8320;BME280;4197;42.130;24.746;2022-10-10T09:14:05;100429.13;;;18.82;64.50
8320;BME280;4197;42.130;24.746;2022-10-10T09:16:41;100435.44;;;18.97;63.88
8320;BME280;4197;42.130;24.746;2022-10-10T09:19:23;100425.31;;;19.15;62.82
8320;BME280;4197;42.130;24.746;2022-10-10T09:21:59;100426.03;;;18.94;62.37
8320;BME280;4197;42.130;24.746;2022-10-10T09:24:32;100431.59;;;19.23;61.65
8320;BME280;4197;42.130;24.746;2022-10-10T09:27:12;100421.03;;;19.39;61.21
8320;BME280;4197;42.130;24.746;2022-10-10T09:29:46;100421.84;;;19.61;60.28
8320;BME280;4197;42.130;24.746;2022-10-10T09:32:19;100420.31;;;19.89;58.69
8320;BME280;4197;42.130;24.746;2022-10-10T09:34:52;100411.66;;;19.76;58.64
8320;BME280;4197;42.130;24.746;2022-10-10T09:37:24;100411.28;;;19.81;58.65
8320;BME280;4197;42.130;24.746;2022-10-10T09:40:17;100418.75;;;20.02;58.20
8320;BME280;4197;42.130;24.746;2022-10-10T09:42:49;100417.59;;;20.07;57.25
8320;BME280;4197;42.130;24.746;2022-10-10T09:45:19;100415.97;;;20.16;56.86
8320;BME280;4197;42.130;24.746;2022-10-10T09:47:52;100405.75;;;20.06;57.03
8320;BME280;4197;42.130;24.746;2022-10-10T09:50:21;100402.25;;;19.98;57.66
8320;BME280;4197;42.130;24.746;2022-10-10T09:52:51;100403.81;;;20.10;57.29
8320;BME280;4197;42.130;24.746;2022-10-10T09:55:23;100400.66;;;20.15;57.37
8320;BME280;4197;42.130;24.746;2022-10-10T09:57:54;100393.56;;;20.18;58.12
8320;BME280;4197;42.130;24.746;2022-10-10T10:00:29;100395.50;;;20.32;56.67
8320;BME280;4197;42.130;24.746;2022-10-10T10:03:09;100399.41;;;20.41;55.84
8320;BME280;4197;42.130;24.746;2022-10-10T10:05:39;100393.47;;;20.50;55.68
8320;BME280;4197;42.130;24.746;2022-10-10T10:08:20;100398.63;;;20.34;55.63
8320;BME280;4197;42.130;24.746;2022-10-10T10:10:49;100393.88;;;20.63;55.81
8320;BME280;4197;42.130;24.746;2022-10-10T10:13:21;100392.91;;;21.02;54.98
8320;BME280;4197;42.130;24.746;2022-10-10T10:15:55;100402.38;;;20.97;54.17
8320;BME280;4197;42.130;24.746;2022-10-10T10:18:27;100393.47;;;20.61;53.35
8320;BME280;4197;42.130;24.746;2022-10-10T10:21:12;100393.88;;;20.45;54.36
8320;BME280;4197;42.130;24.746;2022-10-10T10:23:42;100382.13;;;20.30;55.98
8320;BME280;4197;42.130;24.746;2022-10-10T10:26:16;100387.19;;;20.60;55.74
8320;BME280;4197;42.130;24.746;2022-10-10T10:28:46;100379.22;;;20.80;54.64
8320;BME280;4197;42.130;24.746;2022-10-10T10:34:34;100371.72;;;20.88;53.69
8320;BME280;4197;42.130;24.746;2022-10-10T10:37:15;100367.03;;;20.81;53.47
8320;BME280;4197;42.130;24.746;2022-10-10T10:40:08;100356.41;;;20.72;54.13
8320;BME280;4197;42.130;24.746;2022-10-10T10:42:53;100360.66;;;20.91;52.91
8320;BME280;4197;42.130;24.746;2022-10-10T10:45:29;100361.38;;;21.03;52.78
8320;BME280;4197;42.130;24.746;2022-10-10T10:48:09;100356.41;;;21.46;52.28
8320;BME280;4197;42.130;24.746;2022-10-10T10:50:49;100356.28;;;21.60;51.01
8320;BME280;4197;42.130;24.746;2022-10-10T10:53:24;100353.88;;;21.66;50.01
8320;BME280;4197;42.130;24.746;2022-10-10T10:56:03;100357.22;;;21.43;50.76
8320;BME280;4197;42.130;24.746;2022-10-10T10:58:59;100345.00;;;21.41;50.75
8320;BME280;4197;42.130;24.746;2022-10-10T11:01:54;100354.03;;;21.45;50.31
8320;BME280;4197;42.130;24.746;2022-10-10T11:04:50;100345.31;;;21.50;50.82
8320;BME280;4197;42.130;24.746;2022-10-10T11:07:50;100335.88;;;21.51;50.54
8320;BME280;4197;42.130;24.746;2022-10-10T11:10:25;100334.53;;;21.66;49.78
8320;BME280;4197;42.130;24.746;2022-10-10T11:13:02;100328.22;;;21.69;49.42
8320;BME280;4197;42.130;24.746;2022-10-10T11:15:36;100331.53;;;21.53;50.01
8320;BME280;4197;42.130;24.746;2022-10-10T11:18:29;100323.72;;;21.41;50.80
8320;BME280;4197;42.130;24.746;2022-10-10T11:21:03;100327.94;;;21.53;50.64
8320;BME280;4197;42.130;24.746;2022-10-10T11:23:39;100328.00;;;21.49;51.30
8320;BME280;4197;42.130;24.746;2022-10-10T11:26:11;100325.88;;;21.64;50.45
8320;BME280;4197;42.130;24.746;2022-10-10T11:28:47;100324.72;;;21.65;50.28
8320;BME280;4197;42.130;24.746;2022-10-10T11:31:21;100332.66;;;21.56;50.15
8320;BME280;4197;42.130;24.746;2022-10-10T11:33:54;100322.72;;;21.66;50.23
8320;BME280;4197;42.130;24.746;2022-10-10T11:36:27;100322.78;;;21.58;49.87
8320;BME280;4197;42.130;24.746;2022-10-10T11:39:01;100321.78;;;21.34;50.74
8320;BME280;4197;42.130;24.746;2022-10-10T11:41:34;100326.13;;;21.28;51.15
8320;BME280;4197;42.130;24.746;2022-10-10T11:44:08;100319.75;;;21.42;50.97
8320;BME280;4197;42.130;24.746;2022-10-10T11:46:41;100319.00;;;21.38;50.77
8320;BME280;4197;42.130;24.746;2022-10-10T11:49:16;100322.59;;;21.31;51.28
8320;BME280;4197;42.130;24.746;2022-10-10T11:52:02;100316.13;;;21.52;50.44
8320;BME280;4197;42.130;24.746;2022-10-10T11:55:04;100310.88;;;21.69;49.77
8320;BME280;4197;42.130;24.746;2022-10-10T11:57:37;100309.41;;;21.57;49.21
8320;BME280;4197;42.130;24.746;2022-10-10T12:00:13;100304.19;;;21.66;49.81
8320;BME280;4197;42.130;24.746;2022-10-10T12:02:42;100299.88;;;21.65;49.52
8320;BME280;4197;42.130;24.746;2022-10-10T12:05:20;100306.56;;;21.68;49.32
8320;BME280;4197;42.130;24.746;2022-10-10T12:08:05;100296.34;;;21.65;50.17
8320;BME280;4197;42.130;24.746;2022-10-10T12:10:38;100293.09;;;21.70;50.47
8320;BME280;4197;42.130;24.746;2022-10-10T12:13:22;100293.75;;;21.85;49.15
8320;BME280;4197;42.130;24.746;2022-10-10T12:15:53;100289.16;;;21.71;50.21
8320;BME280;4197;42.130;24.746;2022-10-10T12:18:25;100283.50;;;21.85;49.37
8320;BME280;4197;42.130;24.746;2022-10-10T12:21:05;100286.66;;;21.83;48.45
8320;BME280;4197;42.130;24.746;2022-10-10T12:23:35;100286.94;;;21.55;48.50
8320;BME280;4197;42.130;24.746;2022-10-10T12:26:05;100288.50;;;21.56;48.51
8320;BME280;4197;42.130;24.746;2022-10-10T12:28:35;100296.94;;;21.34;49.05
8320;BME280;4197;42.130;24.746;2022-10-10T12:31:27;100290.44;;;21.63;48.41
8320;BME280;4197;42.130;24.746;2022-10-10T12:34:14;100290.53;;;21.52;48.48
8320;BME280;4197;42.130;24.746;2022-10-10T12:36:56;100291.69;;;21.54;49.11
8320;BME280;4197;42.130;24.746;2022-10-10T12:39:35;100293.75;;;21.85;48.54
8320;BME280;4197;42.130;24.746;2022-10-10T12:42:30;100284.13;;;22.00;48.12
8320;BME280;4197;42.130;24.746;2022-10-10T12:44:59;100287.84;;;21.82;48.03
8320;BME280;4197;42.130;24.746;2022-10-10T12:47:35;100286.09;;;21.61;48.45
8320;BME280;4197;42.130;24.746;2022-10-10T12:50:30;100280.00;;;21.81;48.28
8320;BME280;4197;42.130;24.746;2022-10-10T12:53:01;100283.75;;;21.60;48.60
8320;BME280;4197;42.130;24.746;2022-10-10T12:55:39;100275.16;;;21.51;49.03
8320;BME280;4197;42.130;24.746;2022-10-10T12:58:15;100278.28;;;21.53;49.29
8320;BME280;4197;42.130;24.746;2022-10-10T13:00:54;100277.59;;;21.45;48.39
8320;BME280;4197;42.130;24.746;2022-10-10T13:03:27;100282.38;;;21.34;48.46
8320;BME280;4197;42.130;24.746;2022-10-10T13:06:03;100275.25;;;21.40;48.26
8320;BME280;4197;42.130;24.746;2022-10-10T13:08:33;100276.38;;;21.46;48.10
8320;BME280;4197;42.130;24.746;2022-10-10T13:11:07;100277.22;;;21.36;49.03
8320;BME280;4197;42.130;24.746;2022-10-10T13:13:39;100287.47;;;21.35;49.19
8320;BME280;4197;42.130;24.746;2022-10-10T13:16:12;100276.13;;;21.23;49.66
8320;BME280;4197;42.130;24.746;2022-10-10T13:18:47;100259.50;;;21.33;49.46
8320;BME280;4197;42.130;24.746;2022-10-10T13:21:19;100258.28;;;21.42;49.34
8320;BME280;4197;42.130;24.746;2022-10-10T13:23:50;100259.44;;;21.44;49.01
8320;BME280;4197;42.130;24.746;2022-10-10T13:26:43;100239.28;;;21.51;48.62